Tinsdal — V2AJ2 — position and weather

sailwx.info

Track history (hours):
 
Tides and Currents Weather Stations Pressure Air Temp Water Temp Dewpoint Dewpoint Depression Visibility Wind Speed Wind Dir Waves Ship Positions

Tinsdal

Last reported at 2016-Aug-24 21:32 UTC. Time now 2016-Aug-25 18:31 UTC.
Position N 33°10' W 008°41'.

Length 180 m; draft 4 m.

Type: Ship. MMSI: 305573000.

Date/timePositionNaut miles runAvg speedWind from/ knotsBaromVisibWave heightAir tempDewpointWater temp
2016-Aug-24 21:32N 33°10' W 008°41'0 0.0
2016-Aug-24 13:08N 33°10' W 008°41'0 0.0
2016-Aug-24 12:26N 33°10' W 008°41'0 0.0
2016-Aug-24 02:08N 33°10' W 008°41'0 0.0
2016-Aug-23 23:26N 33°10' W 008°41'0 0.0
2016-Aug-23 22:23N 33°10' W 008°41'0 0.0
2016-Aug-23 17:26N 33°10' W 008°41'9 1.8
2016-Aug-23 12:31N 33°13' W 008°51'5 2.0
2016-Aug-23 10:12N 33°14' W 008°57'4 2.5
2016-Aug-23 08:33N 33°11' W 008°54'1 0.6
2016-Aug-23 06:33N 33°10' W 008°53'1 0.8
2016-Aug-23 05:24N 33°11' W 008°53'1 1.1
2016-Aug-23 04:33N 33°12' W 008°54'1 1.2
2016-Aug-23 03:31N 33°13' W 008°55'1 1.0
2016-Aug-23 02:13N 33°14' W 008°55'2 0.9
2016-Aug-23 00:26N 33°15' W 008°56'1 0.6
2016-Aug-22 23:33N 33°16' W 008°56'6 5.7
2016-Aug-22 22:32N 33°12' W 008°51'16 3.1
2016-Aug-22 17:23N 33°23' W 009°05'22 2.9
2016-Aug-22 09:31N 33°05' W 009°21'14 5.8
2016-Aug-22 07:08N 32°56' W 009°34'30 7.5
2016-Aug-22 03:05N 32°35' W 009°59'5 6.9
2016-Aug-22 02:24N 32°31' W 010°03'30 5.9
2016-Aug-21 21:19N 32°10' W 010°28'4 5.5
2016-Aug-21 20:33N 32°07' W 010°32'38 5.9
2016-Aug-21 14:11N 31°40' W 011°03'29 6.3
2016-Aug-21 09:34N 31°21' W 011°28'105 6.1
2016-Aug-20 16:19N 30°17' W 013°06'77 6.3
2016-Aug-20 04:08N 29°31' W 014°17'5 5.8
2016-Aug-20 03:21N 29°29' W 014°21'18 6.1
2016-Aug-20 00:28N 29°18' W 014°37'6 6.2
2016-Aug-19 23:26N 29°14' W 014°43'7 6.3
2016-Aug-19 22:18N 29°10' W 014°50'32 6.7
2016-Aug-19 17:33N 28°51' W 015°19'8 7.9
2016-Aug-19 16:33N 28°46' W 015°26'8 8.0
2016-Aug-19 15:32N 28°41' W 015°33'9 8.4
2016-Aug-19 14:30N 28°35' W 015°41'10 9.4
2016-Aug-19 13:29N 28°28' W 015°48'8 8.2
2016-Aug-19 12:33N 28°24' W 015°55'10 9.9
2016-Aug-19 11:30N 28°27' W 016°06'7 7.4
2016-Aug-19 10:33N 28°28' W 016°14'0 0.2
2016-Aug-19 09:16N 28°28' W 016°15'0 0.0
2016-Aug-19 08:28N 28°28' W 016°15'0 0.0
2016-Aug-19 07:31N 28°28' W 016°15'0 0.0
2016-Aug-19 06:31N 28°28' W 016°15'0 0.0
2016-Aug-19 02:25N 28°28' W 016°15'0 0.0
2016-Aug-19 00:22N 28°28' W 016°15'0 0.0
2016-Aug-18 23:28N 28°28' W 016°15'0 0.0
2016-Aug-18 22:25N 28°28' W 016°15'0 0.0
2016-Aug-18 21:16N 28°28' W 016°15'0 0.0
2016-Aug-18 20:31N 28°28' W 016°15'0 0.0
2016-Aug-18 19:28N 28°28' W 016°15'0 0.0
2016-Aug-18 18:28N 28°28' W 016°15'0 0.0
2016-Aug-18 17:19N 28°28' W 016°15'0 0.0
2016-Aug-18 16:31N 28°28' W 016°15'0 0.0
2016-Aug-18 15:22N 28°28' W 016°15'0 0.0
2016-Aug-18 13:22N 28°28' W 016°15'0 0.0
2016-Aug-18 12:22N 28°28' W 016°15'0 0.0
2016-Aug-18 04:31N 28°28' W 016°15'0 0.0
2016-Aug-18 03:19N 28°28' W 016°15'0 0.0
2016-Aug-18 02:31N 28°28' W 016°15'0 0.0
2016-Aug-18 01:16N 28°28' W 016°15'0 0.0
2016-Aug-18 00:22N 28°28' W 016°15'0 0.0
2016-Aug-17 23:22N 28°28' W 016°15'0 0.0
2016-Aug-17 22:19N 28°28' W 016°15'0 0.0
2016-Aug-17 20:25N 28°28' W 016°15'3 0.3
2016-Aug-17 12:29N 28°28' W 016°12'7 7.8
2016-Aug-17 11:33N 28°32' W 016°04'  
2016-Aug-14 22:33N 31°02' W 016°33'  
Track history (hours):
 
Tides and Currents Weather Stations Pressure Air Temp Water Temp Dewpoint Dewpoint Depression Visibility Wind Speed Wind Dir Waves Ship Positions

Tinsdal

Last reported at 2016-Aug-24 21:32 UTC. Time now 2016-Aug-25 18:31 UTC.
Position N 33°10' W 008°41'.

Length 180 m; draft 4 m.

Type: Ship. MMSI: 305573000.

Date/timePositionNaut miles runAvg speedWind from/ knotsBaromVisibWave heightAir tempDewpointWater temp
2016-Aug-24 21:32N 33°10' W 008°41'0 0.0
2016-Aug-24 13:08N 33°10' W 008°41'0 0.0
2016-Aug-24 12:26N 33°10' W 008°41'0 0.0
2016-Aug-24 02:08N 33°10' W 008°41'0 0.0
2016-Aug-23 23:26N 33°10' W 008°41'0 0.0
2016-Aug-23 22:23N 33°10' W 008°41'0 0.0
2016-Aug-23 17:26N 33°10' W 008°41'9 1.8
2016-Aug-23 12:31N 33°13' W 008°51'5 2.0
2016-Aug-23 10:12N 33°14' W 008°57'4 2.5
2016-Aug-23 08:33N 33°11' W 008°54'1 0.6
2016-Aug-23 06:33N 33°10' W 008°53'1 0.8
2016-Aug-23 05:24N 33°11' W 008°53'1 1.1
2016-Aug-23 04:33N 33°12' W 008°54'1 1.2
2016-Aug-23 03:31N 33°13' W 008°55'1 1.0
2016-Aug-23 02:13N 33°14' W 008°55'2 0.9
2016-Aug-23 00:26N 33°15' W 008°56'1 0.6
2016-Aug-22 23:33N 33°16' W 008°56'6 5.7
2016-Aug-22 22:32N 33°12' W 008°51'16 3.1
2016-Aug-22 17:23N 33°23' W 009°05'22 2.9
2016-Aug-22 09:31N 33°05' W 009°21'14 5.8
2016-Aug-22 07:08N 32°56' W 009°34'30 7.5
2016-Aug-22 03:05N 32°35' W 009°59'5 6.9
2016-Aug-22 02:24N 32°31' W 010°03'30 5.9
2016-Aug-21 21:19N 32°10' W 010°28'4 5.5
2016-Aug-21 20:33N 32°07' W 010°32'38 5.9
2016-Aug-21 14:11N 31°40' W 011°03'29 6.3
2016-Aug-21 09:34N 31°21' W 011°28'105 6.1
2016-Aug-20 16:19N 30°17' W 013°06'77 6.3
2016-Aug-20 04:08N 29°31' W 014°17'5 5.8
2016-Aug-20 03:21N 29°29' W 014°21'18 6.1
2016-Aug-20 00:28N 29°18' W 014°37'6 6.2
2016-Aug-19 23:26N 29°14' W 014°43'7 6.3
2016-Aug-19 22:18N 29°10' W 014°50'32 6.7
2016-Aug-19 17:33N 28°51' W 015°19'8 7.9
2016-Aug-19 16:33N 28°46' W 015°26'8 8.0
2016-Aug-19 15:32N 28°41' W 015°33'9 8.4
2016-Aug-19 14:30N 28°35' W 015°41'10 9.4
2016-Aug-19 13:29N 28°28' W 015°48'8 8.2
2016-Aug-19 12:33N 28°24' W 015°55'10 9.9
2016-Aug-19 11:30N 28°27' W 016°06'7 7.4
2016-Aug-19 10:33N 28°28' W 016°14'0 0.2
2016-Aug-19 09:16N 28°28' W 016°15'0 0.0
2016-Aug-19 08:28N 28°28' W 016°15'0 0.0
2016-Aug-19 07:31N 28°28' W 016°15'0 0.0
2016-Aug-19 06:31N 28°28' W 016°15'0 0.0
2016-Aug-19 02:25N 28°28' W 016°15'0 0.0
2016-Aug-19 00:22N 28°28' W 016°15'0 0.0
2016-Aug-18 23:28N 28°28' W 016°15'0 0.0
2016-Aug-18 22:25N 28°28' W 016°15'0 0.0
2016-Aug-18 21:16N 28°28' W 016°15'0 0.0
2016-Aug-18 20:31N 28°28' W 016°15'0 0.0
2016-Aug-18 19:28N 28°28' W 016°15'0 0.0
2016-Aug-18 18:28N 28°28' W 016°15'0 0.0
2016-Aug-18 17:19N 28°28' W 016°15'0 0.0
2016-Aug-18 16:31N 28°28' W 016°15'0 0.0
2016-Aug-18 15:22N 28°28' W 016°15'0 0.0
2016-Aug-18 13:22N 28°28' W 016°15'0 0.0
2016-Aug-18 12:22N 28°28' W 016°15'0 0.0
2016-Aug-18 04:31N 28°28' W 016°15'0 0.0
2016-Aug-18 03:19N 28°28' W 016°15'0 0.0
2016-Aug-18 02:31N 28°28' W 016°15'0 0.0
2016-Aug-18 01:16N 28°28' W 016°15'0 0.0
2016-Aug-18 00:22N 28°28' W 016°15'0 0.0
2016-Aug-17 23:22N 28°28' W 016°15'0 0.0
2016-Aug-17 22:19N 28°28' W 016°15'0 0.0
2016-Aug-17 20:25N 28°28' W 016°15'3 0.3
2016-Aug-17 12:29N 28°28' W 016°12'7 7.8
2016-Aug-17 11:33N 28°32' W 016°04'  
2016-Aug-14 22:33N 31°02' W 016°33'  

Dump ship's entire track history